sensor_id;sensor_type;location;lat;lon;timestamp;P1;durP1;ratioP1;P2;durP2;ratioP2
15637;SDS011;26604;53.596;10.042;2023-11-21T05:35:26;11.85;;;6.75;;
15637;SDS011;26604;53.596;10.042;2023-11-21T05:37:53;11.30;;;6.53;;
15637;SDS011;26604;53.596;10.042;2023-11-21T05:40:20;12.73;;;6.28;;
15637;SDS011;26604;53.596;10.042;2023-11-21T05:42:47;12.27;;;6.50;;
15637;SDS011;26604;53.596;10.042;2023-11-21T05:45:14;9.18;;;5.78;;
15637;SDS011;26604;53.596;10.042;2023-11-21T05:47:42;9.48;;;6.15;;
15637;SDS011;26604;53.596;10.042;2023-11-21T05:50:11;9.27;;;6.07;;
15637;SDS011;26604;53.596;10.042;2023-11-21T05:52:41;10.07;;;6.18;;
15637;SDS011;26604;53.596;10.042;2023-11-21T05:55:09;8.80;;;5.10;;
15637;SDS011;26604;53.596;10.042;2023-11-21T05:57:36;11.55;;;6.40;;
15637;SDS011;26604;53.596;10.042;2023-11-21T06:00:05;10.07;;;6.53;;
15637;SDS011;26604;53.596;10.042;2023-11-21T06:02:36;8.73;;;5.60;;
15637;SDS011;26604;53.596;10.042;2023-11-21T06:05:04;11.70;;;6.47;;
15637;SDS011;26604;53.596;10.042;2023-11-21T06:07:32;13.85;;;5.82;;
15637;SDS011;26604;53.596;10.042;2023-11-21T06:10:01;9.25;;;5.63;;
15637;SDS011;26604;53.596;10.042;2023-11-21T06:12:31;10.07;;;6.07;;
15637;SDS011;26604;53.596;10.042;2023-11-21T06:15:00;15.80;;;6.43;;
15637;SDS011;26604;53.596;10.042;2023-11-21T06:17:30;9.07;;;5.88;;
15637;SDS011;26604;53.596;10.042;2023-11-21T06:19:57;13.27;;;6.20;;
15637;SDS011;26604;53.596;10.042;2023-11-21T06:22:24;10.38;;;5.90;;
15637;SDS011;26604;53.596;10.042;2023-11-21T06:24:50;10.10;;;6.07;;
15637;SDS011;26604;53.596;10.042;2023-11-21T06:27:19;13.02;;;7.20;;
15637;SDS011;26604;53.596;10.042;2023-11-21T06:29:46;10.85;;;6.25;;
15637;SDS011;26604;53.596;10.042;2023-11-21T06:32:13;10.60;;;6.30;;
15637;SDS011;26604;53.596;10.042;2023-11-21T06:34:41;12.07;;;6.30;;
15637;SDS011;26604;53.596;10.042;2023-11-21T06:37:08;9.05;;;6.22;;
15637;SDS011;26604;53.596;10.042;2023-11-21T06:39:36;11.38;;;6.20;;
15637;SDS011;26604;53.596;10.042;2023-11-21T06:42:03;14.07;;;6.28;;
15637;SDS011;26604;53.596;10.042;2023-11-21T06:44:31;12.80;;;6.60;;
15637;SDS011;26604;53.596;10.042;2023-11-21T06:47:00;10.05;;;6.38;;
15637;SDS011;26604;53.596;10.042;2023-11-21T06:49:27;10.68;;;6.30;;
15637;SDS011;26604;53.596;10.042;2023-11-21T06:51:54;10.07;;;6.35;;
15637;SDS011;26604;53.596;10.042;2023-11-21T06:54:21;11.02;;;5.65;;
15637;SDS011;26604;53.596;10.042;2023-11-21T06:56:48;11.20;;;6.82;;
15637;SDS011;26604;53.596;10.042;2023-11-21T06:59:15;10.40;;;5.82;;
15637;SDS011;26604;53.596;10.042;2023-11-21T07:01:43;9.45;;;5.55;;
15637;SDS011;26604;53.596;10.042;2023-11-21T07:04:10;9.98;;;6.32;;
15637;SDS011;26604;53.596;10.042;2023-11-21T07:06:37;11.13;;;7.03;;
15637;SDS011;26604;53.596;10.042;2023-11-21T07:09:03;12.02;;;6.07;;
15637;SDS011;26604;53.596;10.042;2023-11-21T07:11:30;11.40;;;6.65;;
15637;SDS011;26604;53.596;10.042;2023-11-21T07:13:58;14.48;;;6.90;;
15637;SDS011;26604;53.596;10.042;2023-11-21T07:16:24;8.75;;;5.85;;
15637;SDS011;26604;53.596;10.042;2023-11-21T07:18:53;8.30;;;5.65;;
15637;SDS011;26604;53.596;10.042;2023-11-21T07:21:21;10.30;;;5.78;;
15637;SDS011;26604;53.596;10.042;2023-11-21T07:23:48;8.93;;;5.82;;
15637;SDS011;26604;53.596;10.042;2023-11-21T07:26:14;10.45;;;5.75;;
15637;SDS011;26604;53.596;10.042;2023-11-21T07:28:41;10.98;;;5.70;;
15637;SDS011;26604;53.596;10.042;2023-11-21T07:31:08;10.07;;;6.47;;
15637;SDS011;26604;53.596;10.042;2023-11-21T07:33:35;9.98;;;5.78;;
15637;SDS011;26604;53.596;10.042;2023-11-21T07:36:05;8.55;;;5.63;;
15637;SDS011;26604;53.596;10.042;2023-11-21T07:38:32;9.27;;;6.13;;
15637;SDS011;26604;53.596;10.042;2023-11-21T07:40:59;11.48;;;6.28;;
15637;SDS011;26604;53.596;10.042;2023-11-21T07:43:27;9.38;;;5.63;;
15637;SDS011;26604;53.596;10.042;2023-11-21T07:45:59;8.32;;;5.35;;
15637;SDS011;26604;53.596;10.042;2023-11-21T07:48:27;10.35;;;5.75;;
15637;SDS011;26604;53.596;10.042;2023-11-21T07:50:54;9.40;;;5.28;;
15637;SDS011;26604;53.596;10.042;2023-11-21T07:53:23;13.77;;;5.75;;
15637;SDS011;26604;53.596;10.042;2023-11-21T07:55:50;7.85;;;4.88;;
15637;SDS011;26604;53.596;10.042;2023-11-21T07:58:17;9.07;;;4.85;;
15637;SDS011;26604;53.596;10.042;2023-11-21T08:00:44;8.65;;;5.00;;
15637;SDS011;26604;53.596;10.042;2023-11-21T08:03:11;7.82;;;5.05;;
15637;SDS011;26604;53.596;10.042;2023-11-21T08:05:39;10.15;;;5.47;;
15637;SDS011;26604;53.596;10.042;2023-11-21T08:08:06;7.63;;;4.93;;
15637;SDS011;26604;53.596;10.042;2023-11-21T08:10:34;7.50;;;4.07;;
15637;SDS011;26604;53.596;10.042;2023-11-21T08:13:01;7.72;;;4.40;;
15637;SDS011;26604;53.596;10.042;2023-11-21T08:15:28;7.07;;;3.92;;
15637;SDS011;26604;53.596;10.042;2023-11-21T08:17:56;6.50;;;4.25;;
15637;SDS011;26604;53.596;10.042;2023-11-21T08:20:23;6.75;;;4.13;;
15637;SDS011;26604;53.596;10.042;2023-11-21T08:22:50;8.07;;;4.05;;
15637;SDS011;26604;53.596;10.042;2023-11-21T08:25:18;7.55;;;3.97;;
15637;SDS011;26604;53.596;10.042;2023-11-21T08:27:47;5.75;;;4.25;;
15637;SDS011;26604;53.596;10.042;2023-11-21T08:30:14;6.75;;;4.43;;
15637;SDS011;26604;53.596;10.042;2023-11-21T08:32:42;8.25;;;3.70;;
15637;SDS011;26604;53.596;10.042;2023-11-21T08:35:08;6.05;;;3.63;;
15637;SDS011;26604;53.596;10.042;2023-11-21T08:37:36;6.65;;;3.85;;
15637;SDS011;26604;53.596;10.042;2023-11-21T08:40:04;7.05;;;3.30;;
15637;SDS011;26604;53.596;10.042;2023-11-21T08:42:34;6.55;;;3.83;;
15637;SDS011;26604;53.596;10.042;2023-11-21T08:45:02;7.05;;;3.88;;
15637;SDS011;26604;53.596;10.042;2023-11-21T08:47:34;6.35;;;3.65;;
15637;SDS011;26604;53.596;10.042;2023-11-21T08:50:01;5.18;;;3.08;;
15637;SDS011;26604;53.596;10.042;2023-11-21T08:52:28;5.70;;;3.72;;
15637;SDS011;26604;53.596;10.042;2023-11-21T08:54:55;5.22;;;3.50;;
15637;SDS011;26604;53.596;10.042;2023-11-21T08:57:22;4.57;;;2.92;;
15637;SDS011;26604;53.596;10.042;2023-11-21T08:59:49;5.68;;;3.47;;
15637;SDS011;26604;53.596;10.042;2023-11-21T09:02:21;5.95;;;2.90;;
15637;SDS011;26604;53.596;10.042;2023-11-21T09:04:49;4.70;;;3.15;;
15637;SDS011;26604;53.596;10.042;2023-11-21T09:07:17;5.18;;;3.15;;
15637;SDS011;26604;53.596;10.042;2023-11-21T09:09:45;7.40;;;3.50;;
15637;SDS011;26604;53.596;10.042;2023-11-21T09:12:12;5.32;;;2.60;;
15637;SDS011;26604;53.596;10.042;2023-11-21T09:14:39;4.38;;;3.10;;
15637;SDS011;26604;53.596;10.042;2023-11-21T09:17:06;11.90;;;3.90;;
15637;SDS011;26604;53.596;10.042;2023-11-21T09:19:37;7.53;;;3.33;;
15637;SDS011;26604;53.596;10.042;2023-11-21T09:22:04;5.90;;;3.60;;
15637;SDS011;26604;53.596;10.042;2023-11-21T09:24:31;6.63;;;3.65;;
15637;SDS011;26604;53.596;10.042;2023-11-21T09:26:58;8.13;;;3.80;;
15637;SDS011;26604;53.596;10.042;2023-11-21T09:29:26;8.57;;;3.78;;
15637;SDS011;26604;53.596;10.042;2023-11-21T09:31:53;6.35;;;3.40;;
15637;SDS011;26604;53.596;10.042;2023-11-21T09:34:24;9.00;;;3.80;;
15637;SDS011;26604;53.596;10.042;2023-11-21T09:36:53;7.53;;;3.55;;
15637;SDS011;26604;53.596;10.042;2023-11-21T09:39:19;6.50;;;3.20;;
15637;SDS011;26604;53.596;10.042;2023-11-21T09:41:51;6.25;;;3.30;;
15637;SDS011;26604;53.596;10.042;2023-11-21T09:44:22;5.82;;;2.90;;
15637;SDS011;26604;53.596;10.042;2023-11-21T09:46:58;4.95;;;3.17;;
15637;SDS011;26604;53.596;10.042;2023-11-21T09:49:26;6.55;;;2.97;;
15637;SDS011;26604;53.596;10.042;2023-11-21T09:51:55;5.85;;;2.88;;
15637;SDS011;26604;53.596;10.042;2023-11-21T09:54:23;6.47;;;2.97;;
15637;SDS011;26604;53.596;10.042;2023-11-21T09:56:50;5.70;;;2.78;;
15637;SDS011;26604;53.596;10.042;2023-11-21T09:59:17;4.13;;;2.40;;
15637;SDS011;26604;53.596;10.042;2023-11-21T10:01:44;4.85;;;2.70;;
15637;SDS011;26604;53.596;10.042;2023-11-21T10:04:11;3.85;;;2.70;;
15637;SDS011;26604;53.596;10.042;2023-11-21T10:06:38;3.75;;;2.63;;
15637;SDS011;26604;53.596;10.042;2023-11-21T10:09:07;5.13;;;2.88;;
15637;SDS011;26604;53.596;10.042;2023-11-21T10:11:37;4.95;;;2.45;;
15637;SDS011;26604;53.596;10.042;2023-11-21T10:14:07;5.07;;;2.63;;
15637;SDS011;26604;53.596;10.042;2023-11-21T10:16:38;3.50;;;2.22;;
15637;SDS011;26604;53.596;10.042;2023-11-21T10:19:09;5.25;;;2.40;;
15637;SDS011;26604;53.596;10.042;2023-11-21T10:21:40;3.35;;;2.47;;
15637;SDS011;26604;53.596;10.042;2023-11-21T10:24:09;4.35;;;2.10;;
15637;SDS011;26604;53.596;10.042;2023-11-21T10:26:37;4.00;;;1.88;;
15637;SDS011;26604;53.596;10.042;2023-11-21T10:29:04;2.83;;;1.88;;
15637;SDS011;26604;53.596;10.042;2023-11-21T10:31:32;4.93;;;2.17;;
15637;SDS011;26604;53.596;10.042;2023-11-21T10:34:12;3.58;;;1.90;;
15637;SDS011;26604;53.596;10.042;2023-11-21T10:36:42;4.68;;;2.45;;
15637;SDS011;26604;53.596;10.042;2023-11-21T10:39:10;3.42;;;2.65;;
15637;SDS011;26604;53.596;10.042;2023-11-21T10:41:43;4.57;;;2.60;;
15637;SDS011;26604;53.596;10.042;2023-11-21T10:44:11;3.88;;;2.08;;
15637;SDS011;26604;53.596;10.042;2023-11-21T10:46:39;2.90;;;2.28;;
15637;SDS011;26604;53.596;10.042;2023-11-21T10:49:08;3.45;;;2.42;;
15637;SDS011;26604;53.596;10.042;2023-11-21T10:51:34;6.50;;;2.25;;
15637;SDS011;26604;53.596;10.042;2023-11-21T10:54:01;3.88;;;2.50;;
15637;SDS011;26604;53.596;10.042;2023-11-21T10:56:30;6.75;;;3.03;;
15637;SDS011;26604;53.596;10.042;2023-11-21T10:59:00;6.07;;;2.15;;
15637;SDS011;26604;53.596;10.042;2023-11-21T11:01:27;4.53;;;2.10;;
15637;SDS011;26604;53.596;10.042;2023-11-21T11:03:57;3.20;;;1.98;;
15637;SDS011;26604;53.596;10.042;2023-11-21T11:06:25;3.33;;;2.10;;
15637;SDS011;26604;53.596;10.042;2023-11-21T11:08:54;3.22;;;2.13;;
15637;SDS011;26604;53.596;10.042;2023-11-21T11:11:21;4.22;;;2.17;;
15637;SDS011;26604;53.596;10.042;2023-11-21T11:13:49;3.15;;;2.05;;
15637;SDS011;26604;53.596;10.042;2023-11-21T11:16:17;3.40;;;2.25;;
15637;SDS011;26604;53.596;10.042;2023-11-21T11:18:45;3.83;;;2.30;;
15637;SDS011;26604;53.596;10.042;2023-11-21T11:21:16;7.68;;;2.42;;
15637;SDS011;26604;53.596;10.042;2023-11-21T11:23:55;5.97;;;2.20;;
15637;SDS011;26604;53.596;10.042;2023-11-21T11:26:35;7.65;;;2.80;;
15637;SDS011;26604;53.596;10.042;2023-11-21T11:29:13;4.78;;;2.33;;
15637;SDS011;26604;53.596;10.042;2023-11-21T11:34:35;6.93;;;2.40;;
15637;SDS011;26604;53.596;10.042;2023-11-21T11:37:06;6.10;;;3.17;;
15637;SDS011;26604;53.596;10.042;2023-11-21T11:39:35;5.00;;;2.22;;
15637;SDS011;26604;53.596;10.042;2023-11-21T11:42:03;4.03;;;2.40;;
15637;SDS011;26604;53.596;10.042;2023-11-21T11:44:47;6.15;;;3.28;;
15637;SDS011;26604;53.596;10.042;2023-11-21T11:47:20;4.28;;;2.25;;
15637;SDS011;26604;53.596;10.042;2023-11-21T11:50:05;3.72;;;2.10;;
15637;SDS011;26604;53.596;10.042;2023-11-21T11:52:39;4.55;;;2.35;;
15637;SDS011;26604;53.596;10.042;2023-11-21T11:55:08;4.40;;;2.38;;
15637;SDS011;26604;53.596;10.042;2023-11-21T11:57:39;3.30;;;2.40;;
15637;SDS011;26604;53.596;10.042;2023-11-21T12:00:13;2.97;;;2.28;;
15637;SDS011;26604;53.596;10.042;2023-11-21T12:02:45;4.85;;;2.28;;
15637;SDS011;26604;53.596;10.042;2023-11-21T12:05:14;7.43;;;2.00;;
15637;SDS011;26604;53.596;10.042;2023-11-21T12:07:46;3.53;;;2.17;;
15637;SDS011;26604;53.596;10.042;2023-11-21T12:10:14;2.88;;;2.05;;
15637;SDS011;26604;53.596;10.042;2023-11-21T12:12:43;3.70;;;1.95;;
15637;SDS011;26604;53.596;10.042;2023-11-21T12:15:13;5.18;;;2.20;;
15637;SDS011;26604;53.596;10.042;2023-11-21T12:17:41;5.35;;;2.20;;
15637;SDS011;26604;53.596;10.042;2023-11-21T12:20:09;3.25;;;2.00;;
15637;SDS011;26604;53.596;10.042;2023-11-21T12:22:43;6.40;;;2.38;;
15637;SDS011;26604;53.596;10.042;2023-11-21T12:25:14;3.83;;;2.38;;
15637;SDS011;26604;53.596;10.042;2023-11-21T12:27:43;3.03;;;2.40;;
15637;SDS011;26604;53.596;10.042;2023-11-21T12:30:13;7.82;;;2.60;;
15637;SDS011;26604;53.596;10.042;2023-11-21T12:32:41;4.85;;;2.58;;
15637;SDS011;26604;53.596;10.042;2023-11-21T12:35:09;5.18;;;3.20;;
15637;SDS011;26604;53.596;10.042;2023-11-21T12:37:36;3.13;;;2.00;;
15637;SDS011;26604;53.596;10.042;2023-11-21T12:40:05;4.00;;;2.17;;
15637;SDS011;26604;53.596;10.042;2023-11-21T12:42:36;3.33;;;2.17;;
15637;SDS011;26604;53.596;10.042;2023-11-21T12:45:06;6.13;;;2.22;;
15637;SDS011;26604;53.596;10.042;2023-11-21T12:47:40;4.63;;;2.22;;
15637;SDS011;26604;53.596;10.042;2023-11-21T12:50:08;3.67;;;1.83;;
15637;SDS011;26604;53.596;10.042;2023-11-21T12:52:42;3.92;;;2.28;;
15637;SDS011;26604;53.596;10.042;2023-11-21T12:55:13;6.65;;;2.25;;
15637;SDS011;26604;53.596;10.042;2023-11-21T12:57:42;4.40;;;2.20;;
15637;SDS011;26604;53.596;10.042;2023-11-21T13:00:10;4.75;;;2.45;;
15637;SDS011;26604;53.596;10.042;2023-11-21T13:02:54;3.85;;;2.10;;
15637;SDS011;26604;53.596;10.042;2023-11-21T13:05:23;6.32;;;2.30;;
15637;SDS011;26604;53.596;10.042;2023-11-21T13:07:51;3.25;;;2.00;;
15637;SDS011;26604;53.596;10.042;2023-11-21T13:10:19;4.50;;;2.20;;
15637;SDS011;26604;53.596;10.042;2023-11-21T13:12:51;4.03;;;2.53;;
15637;SDS011;26604;53.596;10.042;2023-11-21T13:15:19;3.40;;;2.08;;
15637;SDS011;26604;53.596;10.042;2023-11-21T13:17:46;4.93;;;2.42;;
15637;SDS011;26604;53.596;10.042;2023-11-21T13:20:16;2.47;;;1.77;;
15637;SDS011;26604;53.596;10.042;2023-11-21T13:22:48;4.25;;;2.33;;
15637;SDS011;26604;53.596;10.042;2023-11-21T13:25:18;3.47;;;2.40;;
15637;SDS011;26604;53.596;10.042;2023-11-21T13:27:46;3.30;;;2.25;;
15637;SDS011;26604;53.596;10.042;2023-11-21T13:30:13;5.35;;;2.30;;
15637;SDS011;26604;53.596;10.042;2023-11-21T13:32:48;2.55;;;1.77;;
15637;SDS011;26604;53.596;10.042;2023-11-21T13:35:17;4.95;;;2.10;;
15637;SDS011;26604;53.596;10.042;2023-11-21T13:37:56;3.65;;;2.08;;
15637;SDS011;26604;53.596;10.042;2023-11-21T13:40:26;5.80;;;2.20;;
15637;SDS011;26604;53.596;10.042;2023-11-21T13:42:53;4.63;;;2.20;;
15637;SDS011;26604;53.596;10.042;2023-11-21T13:45:21;2.55;;;1.92;;
15637;SDS011;26604;53.596;10.042;2023-11-21T13:47:49;3.65;;;2.42;;
15637;SDS011;26604;53.596;10.042;2023-11-21T13:50:18;5.35;;;2.00;;
15637;SDS011;26604;53.596;10.042;2023-11-21T13:52:51;3.22;;;2.22;;
15637;SDS011;26604;53.596;10.042;2023-11-21T13:55:19;3.88;;;2.22;;
15637;SDS011;26604;53.596;10.042;2023-11-21T13:57:49;3.28;;;2.38;;
15637;SDS011;26604;53.596;10.042;2023-11-21T14:00:17;4.60;;;1.98;;
15637;SDS011;26604;53.596;10.042;2023-11-21T14:03:06;7.20;;;2.45;;
15637;SDS011;26604;53.596;10.042;2023-11-21T14:05:44;3.38;;;2.10;;
15637;SDS011;26604;53.596;10.042;2023-11-21T14:08:12;5.22;;;2.08;;
15637;SDS011;26604;53.596;10.042;2023-11-21T14:10:42;4.53;;;2.53;;
15637;SDS011;26604;53.596;10.042;2023-11-21T14:13:10;3.97;;;2.00;;
15637;SDS011;26604;53.596;10.042;2023-11-21T14:15:38;6.35;;;2.60;;
15637;SDS011;26604;53.596;10.042;2023-11-21T14:18:08;4.07;;;2.33;;
15637;SDS011;26604;53.596;10.042;2023-11-21T14:20:36;3.88;;;2.30;;
15637;SDS011;26604;53.596;10.042;2023-11-21T14:23:04;3.88;;;2.20;;
15637;SDS011;26604;53.596;10.042;2023-11-21T14:25:31;4.93;;;2.20;;
15637;SDS011;26604;53.596;10.042;2023-11-21T14:27:59;3.33;;;2.15;;
15637;SDS011;26604;53.596;10.042;2023-11-21T14:30:28;3.63;;;1.90;;
15637;SDS011;26604;53.596;10.042;2023-11-21T14:32:57;5.43;;;1.80;;
15637;SDS011;26604;53.596;10.042;2023-11-21T14:35:24;4.97;;;1.80;;
15637;SDS011;26604;53.596;10.042;2023-11-21T14:37:51;4.10;;;1.80;;
15637;SDS011;26604;53.596;10.042;2023-11-21T14:40:20;4.22;;;2.03;;
15637;SDS011;26604;53.596;10.042;2023-11-21T14:42:49;4.28;;;2.55;;
15637;SDS011;26604;53.596;10.042;2023-11-21T14:45:18;4.28;;;1.67;;
15637;SDS011;26604;53.596;10.042;2023-11-21T14:47:45;3.58;;;1.70;;
15637;SDS011;26604;53.596;10.042;2023-11-21T14:50:20;4.03;;;1.83;;
15637;SDS011;26604;53.596;10.042;2023-11-21T14:53:09;4.22;;;1.98;;
15637;SDS011;26604;53.596;10.042;2023-11-21T14:55:39;4.30;;;1.20;;
15637;SDS011;26604;53.596;10.042;2023-11-21T14:58:19;4.40;;;1.70;;
15637;SDS011;26604;53.596;10.042;2023-11-21T15:00:52;3.17;;;1.90;;
15637;SDS011;26604;53.596;10.042;2023-11-21T15:03:23;3.65;;;1.88;;
15637;SDS011;26604;53.596;10.042;2023-11-21T15:06:08;2.72;;;1.65;;
15637;SDS011;26604;53.596;10.042;2023-11-21T15:08:56;3.45;;;1.73;;
15637;SDS011;26604;53.596;10.042;2023-11-21T15:11:39;2.92;;;1.70;;
15637;SDS011;26604;53.596;10.042;2023-11-21T15:14:06;4.03;;;1.90;;
15637;SDS011;26604;53.596;10.042;2023-11-21T15:16:34;3.08;;;1.80;;
15637;SDS011;26604;53.596;10.042;2023-11-21T15:19:05;4.30;;;2.10;;
15637;SDS011;26604;53.596;10.042;2023-11-21T15:21:32;2.92;;;1.60;;
15637;SDS011;26604;53.596;10.042;2023-11-21T15:23:59;4.65;;;2.00;;
15637;SDS011;26604;53.596;10.042;2023-11-21T15:26:25;4.85;;;2.10;;
15637;SDS011;26604;53.596;10.042;2023-11-21T15:28:54;6.63;;;2.60;;
15637;SDS011;26604;53.596;10.042;2023-11-21T15:31:21;4.60;;;2.35;;
15637;SDS011;26604;53.596;10.042;2023-11-21T15:33:50;4.13;;;1.52;;
15637;SDS011;26604;53.596;10.042;2023-11-21T15:36:17;2.35;;;1.80;;
15637;SDS011;26604;53.596;10.042;2023-11-21T15:38:44;4.78;;;1.88;;
15637;SDS011;26604;53.596;10.042;2023-11-21T15:41:11;2.75;;;1.83;;
15637;SDS011;26604;53.596;10.042;2023-11-21T15:43:38;3.50;;;2.10;;
15637;SDS011;26604;53.596;10.042;2023-11-21T15:46:06;5.22;;;2.83;;
15637;SDS011;26604;53.596;10.042;2023-11-21T15:48:33;3.53;;;2.03;;
15637;SDS011;26604;53.596;10.042;2023-11-21T15:51:01;5.25;;;2.20;;
15637;SDS011;26604;53.596;10.042;2023-11-21T15:53:29;2.47;;;1.77;;
15637;SDS011;26604;53.596;10.042;2023-11-21T15:55:57;4.65;;;1.92;;
15637;SDS011;26604;53.596;10.042;2023-11-21T15:58:24;4.13;;;2.05;;
15637;SDS011;26604;53.596;10.042;2023-11-21T16:00:51;6.95;;;2.33;;
15637;SDS011;26604;53.596;10.042;2023-11-21T16:03:19;5.50;;;2.15;;
15637;SDS011;26604;53.596;10.042;2023-11-21T16:05:47;6.97;;;2.22;;
15637;SDS011;26604;53.596;10.042;2023-11-21T16:08:14;3.58;;;2.08;;
15637;SDS011;26604;53.596;10.042;2023-11-21T16:10:43;3.33;;;2.10;;
15637;SDS011;26604;53.596;10.042;2023-11-21T16:13:09;3.22;;;2.17;;
15637;SDS011;26604;53.596;10.042;2023-11-21T16:15:38;6.07;;;2.58;;
15637;SDS011;26604;53.596;10.042;2023-11-21T16:18:05;5.82;;;2.40;;
15637;SDS011;26604;53.596;10.042;2023-11-21T16:20:33;4.60;;;2.50;;
15637;SDS011;26604;53.596;10.042;2023-11-21T16:23:00;8.02;;;2.50;;
15637;SDS011;26604;53.596;10.042;2023-11-21T16:25:27;6.18;;;2.72;;
15637;SDS011;26604;53.596;10.042;2023-11-21T16:27:54;6.72;;;2.92;;
15637;SDS011;26604;53.596;10.042;2023-11-21T16:30:23;4.40;;;2.50;;
15637;SDS011;26604;53.596;10.042;2023-11-21T16:32:51;5.75;;;2.55;;
15637;SDS011;26604;53.596;10.042;2023-11-21T16:35:19;6.05;;;2.60;;
15637;SDS011;26604;53.596;10.042;2023-11-21T16:37:47;7.50;;;2.88;;
15637;SDS011;26604;53.596;10.042;2023-11-21T16:40:14;4.38;;;2.33;;
15637;SDS011;26604;53.596;10.042;2023-11-21T16:42:41;7.07;;;2.55;;
15637;SDS011;26604;53.596;10.042;2023-11-21T16:45:09;5.25;;;2.33;;
15637;SDS011;26604;53.596;10.042;2023-11-21T16:47:37;7.45;;;2.65;;
15637;SDS011;26604;53.596;10.042;2023-11-21T16:50:08;7.18;;;3.33;;
15637;SDS011;26604;53.596;10.042;2023-11-21T16:52:35;4.75;;;3.28;;
15637;SDS011;26604;53.596;10.042;2023-11-21T16:55:05;8.63;;;3.55;;
15637;SDS011;26604;53.596;10.042;2023-11-21T16:57:35;8.10;;;3.47;;
15637;SDS011;26604;53.596;10.042;2023-11-21T17:00:03;7.15;;;3.00;;
15637;SDS011;26604;53.596;10.042;2023-11-21T17:02:32;5.85;;;3.50;;
15637;SDS011;26604;53.596;10.042;2023-11-21T17:04:59;6.47;;;3.30;;
15637;SDS011;26604;53.596;10.042;2023-11-21T17:07:26;6.00;;;3.35;;
15637;SDS011;26604;53.596;10.042;2023-11-21T17:09:54;5.32;;;3.60;;
15637;SDS011;26604;53.596;10.042;2023-11-21T17:12:23;4.05;;;2.20;;
15637;SDS011;26604;53.596;10.042;2023-11-21T17:14:51;4.10;;;2.30;;
15637;SDS011;26604;53.596;10.042;2023-11-21T17:17:19;4.15;;;2.03;;
15637;SDS011;26604;53.596;10.042;2023-11-21T17:19:45;4.13;;;2.22;;
15637;SDS011;26604;53.596;10.042;2023-11-21T17:22:13;3.10;;;2.40;;
15637;SDS011;26604;53.596;10.042;2023-11-21T17:24:40;4.38;;;2.00;;
15637;SDS011;26604;53.596;10.042;2023-11-21T17:27:08;3.88;;;1.85;;
15637;SDS011;26604;53.596;10.042;2023-11-21T17:29:37;2.90;;;1.75;;
15637;SDS011;26604;53.596;10.042;2023-11-21T17:32:04;3.60;;;2.22;;
15637;SDS011;26604;53.596;10.042;2023-11-21T17:34:31;3.08;;;1.88;;
15637;SDS011;26604;53.596;10.042;2023-11-21T17:36:59;3.22;;;1.90;;
15637;SDS011;26604;53.596;10.042;2023-11-21T17:39:27;6.38;;;2.20;;
15637;SDS011;26604;53.596;10.042;2023-11-21T17:41:54;5.68;;;2.58;;
15637;SDS011;26604;53.596;10.042;2023-11-21T17:44:21;3.67;;;2.10;;
15637;SDS011;26604;53.596;10.042;2023-11-21T17:46:49;3.88;;;2.38;;
15637;SDS011;26604;53.596;10.042;2023-11-21T17:49:16;5.25;;;2.42;;
15637;SDS011;26604;53.596;10.042;2023-11-21T17:51:43;3.58;;;2.00;;
15637;SDS011;26604;53.596;10.042;2023-11-21T17:54:10;2.88;;;1.60;;
15637;SDS011;26604;53.596;10.042;2023-11-21T17:56:37;3.67;;;1.67;;
15637;SDS011;26604;53.596;10.042;2023-11-21T17:59:04;2.47;;;1.73;;
15637;SDS011;26604;53.596;10.042;2023-11-21T18:01:35;5.55;;;2.13;;
15637;SDS011;26604;53.596;10.042;2023-11-21T18:04:04;1.98;;;1.63;;
15637;SDS011;26604;53.596;10.042;2023-11-21T18:06:31;3.40;;;1.70;;
15637;SDS011;26604;53.596;10.042;2023-11-21T18:08:59;2.97;;;1.75;;
15637;SDS011;26604;53.596;10.042;2023-11-21T18:11:28;5.28;;;2.83;;
15637;SDS011;26604;53.596;10.042;2023-11-21T18:13:55;3.30;;;1.85;;
15637;SDS011;26604;53.596;10.042;2023-11-21T18:16:22;5.43;;;1.75;;
15637;SDS011;26604;53.596;10.042;2023-11-21T18:18:49;3.08;;;1.75;;
15637;SDS011;26604;53.596;10.042;2023-11-21T18:21:18;4.90;;;1.75;;
15637;SDS011;26604;53.596;10.042;2023-11-21T18:23:44;3.67;;;1.85;;
15637;SDS011;26604;53.596;10.042;2023-11-21T18:26:15;3.38;;;1.75;;
15637;SDS011;26604;53.596;10.042;2023-11-21T18:28:42;5.18;;;2.25;;
15637;SDS011;26604;53.596;10.042;2023-11-21T18:31:09;3.05;;;2.00;;
15637;SDS011;26604;53.596;10.042;2023-11-21T18:33:36;8.90;;;2.85;;
15637;SDS011;26604;53.596;10.042;2023-11-21T18:36:05;6.22;;;2.38;;
15637;SDS011;26604;53.596;10.042;2023-11-21T18:38:34;3.63;;;2.08;;
15637;SDS011;26604;53.596;10.042;2023-11-21T18:41:01;3.67;;;2.28;;
15637;SDS011;26604;53.596;10.042;2023-11-21T18:43:28;5.97;;;1.95;;
15637;SDS011;26604;53.596;10.042;2023-11-21T18:45:55;3.90;;;2.40;;
15637;SDS011;26604;53.596;10.042;2023-11-21T18:48:22;5.72;;;2.83;;
15637;SDS011;26604;53.596;10.042;2023-11-21T18:50:50;3.60;;;1.77;;
15637;SDS011;26604;53.596;10.042;2023-11-21T18:53:19;5.97;;;2.10;;
15637;SDS011;26604;53.596;10.042;2023-11-21T18:55:48;4.43;;;2.10;;
15637;SDS011;26604;53.596;10.042;2023-11-21T18:58:15;4.45;;;2.15;;
15637;SDS011;26604;53.596;10.042;2023-11-21T19:00:41;4.43;;;2.35;;
15637;SDS011;26604;53.596;10.042;2023-11-21T19:03:08;5.53;;;2.70;;
15637;SDS011;26604;53.596;10.042;2023-11-21T19:05:36;4.93;;;2.67;;
15637;SDS011;26604;53.596;10.042;2023-11-21T19:08:03;4.13;;;2.17;;
15637;SDS011;26604;53.596;10.042;2023-11-21T19:10:30;2.55;;;1.77;;
15637;SDS011;26604;53.596;10.042;2023-11-21T19:12:59;5.95;;;2.10;;
15637;SDS011;26604;53.596;10.042;2023-11-21T19:15:28;5.30;;;2.65;;
15637;SDS011;26604;53.596;10.042;2023-11-21T19:17:55;2.92;;;1.90;;
15637;SDS011;26604;53.596;10.042;2023-11-21T19:20:23;4.07;;;2.22;;
15637;SDS011;26604;53.596;10.042;2023-11-21T19:22:50;5.13;;;1.73;;
15637;SDS011;26604;53.596;10.042;2023-11-21T19:25:17;4.28;;;2.15;;
15637;SDS011;26604;53.596;10.042;2023-11-21T19:27:44;2.85;;;1.73;;
15637;SDS011;26604;53.596;10.042;2023-11-21T19:30:14;3.70;;;2.10;;
15637;SDS011;26604;53.596;10.042;2023-11-21T19:32:41;4.22;;;2.10;;
15637;SDS011;26604;53.596;10.042;2023-11-21T19:35:10;3.55;;;1.98;;
15637;SDS011;26604;53.596;10.042;2023-11-21T19:37:37;3.58;;;1.85;;
15637;SDS011;26604;53.596;10.042;2023-11-21T19:40:04;3.83;;;2.20;;
15637;SDS011;26604;53.596;10.042;2023-11-21T19:42:32;5.22;;;2.58;;
15637;SDS011;26604;53.596;10.042;2023-11-21T19:45:01;4.88;;;2.13;;
15637;SDS011;26604;53.596;10.042;2023-11-21T19:47:30;5.20;;;1.92;;
15637;SDS011;26604;53.596;10.042;2023-11-21T19:50:00;4.57;;;2.45;;
15637;SDS011;26604;53.596;10.042;2023-11-21T19:52:28;3.47;;;2.00;;
15637;SDS011;26604;53.596;10.042;2023-11-21T19:54:55;3.33;;;1.90;;
15637;SDS011;26604;53.596;10.042;2023-11-21T19:57:22;2.90;;;2.03;;
15637;SDS011;26604;53.596;10.042;2023-11-21T19:59:49;4.47;;;2.45;;
15637;SDS011;26604;53.596;10.042;2023-11-21T20:02:16;5.03;;;2.95;;
15637;SDS011;26604;53.596;10.042;2023-11-21T20:04:44;6.07;;;2.83;;
15637;SDS011;26604;53.596;10.042;2023-11-21T20:07:11;4.25;;;2.63;;
15637;SDS011;26604;53.596;10.042;2023-11-21T20:09:40;5.05;;;2.10;;
15637;SDS011;26604;53.596;10.042;2023-11-21T20:12:07;4.30;;;2.25;;
15637;SDS011;26604;53.596;10.042;2023-11-21T20:14:34;3.67;;;2.17;;
15637;SDS011;26604;53.596;10.042;2023-11-21T20:17:01;3.28;;;2.00;;
15637;SDS011;26604;53.596;10.042;2023-11-21T20:19:28;5.38;;;2.40;;